Time;durP1;ratioP1;P1;durP2;ratioP2;P2;SDS_P1;SDS_P2;PMS_P1;PMS_P2;Temp;Humidity;BMP_temperature;BMP_pressure;BME280_temperature;BME280_humidity;BME280_pressure;Samples;Min_cycle;Max_cycle;Signal;HPM_P1;HPM_P2
2023/10/15 00:01:56;;;;;;;;;;;;;;;6.21;100.00;101813.41;5032133;28;20275;-73
2023/10/15 00:04:22;;;;;;;;;;;;;;;6.27;100.00;101810.47;5053931;28;19920;-72
2023/10/15 00:06:48;;;;;;;;;;;;;;;6.40;100.00;101814.31;5033448;28;21949;-72
2023/10/15 00:09:13;;;;;;;;;;;;;;;6.51;100.00;101808.50;5017660;28;20011;-72
2023/10/15 00:11:38;;;;;;;;;;;;;;;6.67;100.00;101805.16;5017438;28;19958;-72
2023/10/15 00:14:04;;;;;;;;;;;;;;;6.77;100.00;101810.94;5036751;28;20011;-72
2023/10/15 00:16:29;;;;;;;;;;;;;;;6.83;100.00;101807.97;5033639;28;20376;-72
2023/10/15 00:18:54;;;;;;;;;;;;;;;6.92;100.00;101801.34;5034424;28;19920;-72
2023/10/15 00:21:20;;;;;;;;;;;;;;;6.96;100.00;101800.25;5051587;28;20430;-73
2023/10/15 00:23:46;;;;;;;;;;;;;;;6.93;100.00;101792.41;5031863;28;19920;-73
2023/10/15 00:26:12;;;;;;;;;;;;;;;6.77;100.00;101798.44;5018370;28;19916;-72
2023/10/15 00:28:38;;;;;;;;;;;;;;;6.64;100.00;101789.28;5018308;28;19935;-71
2023/10/15 00:31:09;;;;;;;;;;;;;;;6.71;100.00;101794.25;5053829;28;20312;-72
2023/10/15 00:33:35;;;;;;;;;;;;;;;6.80;100.00;101800.97;5034141;28;20589;-72
2023/10/15 00:36:00;;;;;;;;;;;;;;;6.91;100.00;101803.13;5016259;28;19970;-72
2023/10/15 00:38:25;;;;;;;;;;;;;;;6.99;100.00;101806.31;5030582;28;19960;-72
2023/10/15 00:40:53;;;;;;;;;;;;;;;7.09;100.00;101813.91;5046998;28;20511;-72
2023/10/15 00:43:18;;;;;;;;;;;;;;;7.14;100.00;101822.56;5052439;28;19930;-72
2023/10/15 00:45:44;;;;;;;;;;;;;;;7.15;100.00;101830.50;5052077;28;19921;-72
2023/10/15 00:48:11;;;;;;;;;;;;;;;7.22;100.00;101835.53;5033745;28;19974;-72
2023/10/15 00:50:44;;;;;;;;;;;;;;;7.26;100.00;101818.44;5033060;28;20439;-72
2023/10/15 00:53:22;;;;;;;;;;;;;;;7.21;100.00;101810.63;5052711;28;19924;-72
2023/10/15 00:55:51;;;;;;;;;;;;;;;7.16;100.00;101792.16;5052202;28;19921;-72
2023/10/15 00:58:21;;;;;;;;;;;;;;;7.08;100.00;101780.97;5053486;28;19921;-72
2023/10/15 01:00:52;;;;;;;;;;;;;;;6.94;100.00;101796.78;5029626;28;19927;-72
2023/10/15 01:03:25;;;;;;;;;;;;;;;6.88;100.00;101790.81;5018515;28;20396;-72
2023/10/15 01:05:53;;;;;;;;;;;;;;;6.87;100.00;101791.75;5037165;28;19921;-72
2023/10/15 01:08:27;;;;;;;;;;;;;;;6.90;100.00;101794.25;5039333;28;21092;-72
2023/10/15 01:11:08;;;;;;;;;;;;;;;6.95;100.00;101804.72;5050857;28;20100;-72
2023/10/15 01:13:34;;;;;;;;;;;;;;;7.07;100.00;101826.44;5055182;28;19921;-72
2023/10/15 01:16:03;;;;;;;;;;;;;;;7.13;100.00;101827.03;5057130;28;19962;-72
2023/10/15 01:18:28;;;;;;;;;;;;;;;7.08;100.00;101810.34;5057909;28;19934;-72
2023/10/15 01:20:54;;;;;;;;;;;;;;;7.00;100.00;101820.53;5033307;28;19960;-72
2023/10/15 01:26:09;;;;;;;;;;;;;;;7.01;100.00;101827.63;5056825;28;19927;-72
2023/10/15 01:28:37;;;;;;;;;;;;;;;6.97;100.00;101820.69;5057936;28;19920;-71
2023/10/15 01:31:05;;;;;;;;;;;;;;;6.82;100.00;101807.09;5039165;28;19986;-71
2023/10/15 01:33:31;;;;;;;;;;;;;;;6.92;100.00;101809.34;5021260;28;19921;-72
2023/10/15 01:36:06;;;;;;;;;;;;;;;6.95;100.00;101815.41;5039707;28;20433;-72
2023/10/15 01:38:31;;;;;;;;;;;;;;;7.03;100.00;101810.56;5036636;28;19924;-71
2023/10/15 01:40:57;;;;;;;;;;;;;;;7.07;100.00;101802.41;5057602;28;19982;-71
2023/10/15 01:43:22;;;;;;;;;;;;;;;7.02;100.00;101789.25;5058628;28;20008;-71
2023/10/15 01:45:48;;;;;;;;;;;;;;;6.89;100.00;101781.84;5038981;28;20392;-72
2023/10/15 01:48:16;;;;;;;;;;;;;;;6.81;100.00;101783.16;5040227;28;19965;-71
2023/10/15 01:50:49;;;;;;;;;;;;;;;6.73;100.00;101780.84;5051334;28;20019;-71
2023/10/15 01:53:14;;;;;;;;;;;;;;;6.59;100.00;101787.69;5056205;28;19942;-71
2023/10/15 01:55:52;;;;;;;;;;;;;;;6.52;100.00;101782.69;5035133;28;20477;-71
2023/10/15 01:58:19;;;;;;;;;;;;;;;6.45;100.00;101774.13;5024892;28;19931;-71
2023/10/15 02:00:44;;;;;;;;;;;;;;;6.37;100.00;101781.59;5075195;22;20200;-71
2023/10/15 02:03:13;;;;;;;;;;;;;;;6.30;100.00;101784.53;5055496;28;20089;-71
2023/10/15 02:05:41;;;;;;;;;;;;;;;6.27;100.00;101787.31;5042297;28;20008;-72
2023/10/15 02:08:12;;;;;;;;;;;;;;;6.29;100.00;101787.28;5055187;28;20348;-71
2023/10/15 02:10:39;;;;;;;;;;;;;;;6.27;100.00;101787.31;5052500;28;19924;-71
2023/10/15 02:13:05;;;;;;;;;;;;;;;6.29;100.00;101787.28;5052679;28;19920;-71
2023/10/15 02:15:37;;;;;;;;;;;;;;;6.33;100.00;101796.88;5046464;28;19942;-72
2023/10/15 02:18:03;;;;;;;;;;;;;;;6.29;100.00;101801.47;5050834;28;20041;-72
2023/10/15 02:20:44;;;;;;;;;;;;;;;6.34;100.00;101809.28;5050561;28;20638;-71
2023/10/15 02:23:15;;;;;;;;;;;;;;;6.38;100.00;101832.19;5054622;28;19958;-71
2023/10/15 02:25:47;;;;;;;;;;;;;;;6.47;100.00;101833.63;5050377;28;19924;-73
2023/10/15 02:28:25;;;;;;;;;;;;;;;6.42;100.00;101825.78;5048084;28;20388;-73
2023/10/15 02:30:58;;;;;;;;;;;;;;;6.41;100.00;101833.88;5048834;28;20367;-73
2023/10/15 02:33:25;;;;;;;;;;;;;;;6.38;100.00;101836.69;5046558;28;20744;-73
2023/10/15 02:35:54;;;;;;;;;;;;;;;6.41;100.00;101842.72;5047711;28;20018;-72
2023/10/15 02:38:19;;;;;;;;;;;;;;;6.38;100.00;101850.00;5051073;28;20031;-72
2023/10/15 02:43:48;;;;;;;;;;;;;;;6.44;100.00;101849.75;5045354;28;19947;-72
2023/10/15 02:46:22;;;;;;;;;;;;;;;6.46;100.00;101829.22;5050293;28;19967;-72
2023/10/15 02:48:48;;;;;;;;;;;;;;;6.50;100.00;101838.78;5048895;28;20375;-73
2023/10/15 02:51:17;;;;;;;;;;;;;;;6.52;100.00;101836.91;5032806;28;19931;-72
2023/10/15 02:53:50;;;;;;;;;;;;;;;6.58;100.00;101836.66;5045893;28;20394;-74
2023/10/15 02:56:15;;;;;;;;;;;;;;;6.56;100.00;101816.31;5047100;28;20352;-72
2023/10/15 02:58:43;;;;;;;;;;;;;;;6.33;100.00;101810.22;5044943;28;19921;-71
2023/10/15 03:01:17;;;;;;;;;;;;;;;6.36;100.00;101795.88;5047227;28;19925;-73
2023/10/15 03:03:52;;;;;;;;;;;;;;;6.47;100.00;101814.06;5044718;28;19920;-73
2023/10/15 03:06:28;;;;;;;;;;;;;;;6.49;100.00;101814.84;5049676;28;20275;-73
2023/10/15 03:08:53;;;;;;;;;;;;;;;6.55;100.00;101810.09;5054338;28;19920;-72
2023/10/15 03:11:20;;;;;;;;;;;;;;;6.43;100.00;101795.50;5044863;28;20760;-71
2023/10/15 03:13:55;;;;;;;;;;;;;;;6.25;100.00;101783.84;5046222;28;19921;-71
2023/10/15 03:16:22;;;;;;;;;;;;;;;6.01;100.00;101777.81;5045883;28;19989;-70
2023/10/15 03:18:48;;;;;;;;;;;;;;;5.83;100.00;101747.47;5047210;28;19921;-70
2023/10/15 03:21:16;;;;;;;;;;;;;;;5.90;100.00;101761.38;5047448;28;19924;-70
2023/10/15 03:23:42;;;;;;;;;;;;;;;5.88;100.00;101766.81;5048208;28;20432;-71
2023/10/15 03:26:09;;;;;;;;;;;;;;;5.88;100.00;101785.47;5046098;28;19921;-71
2023/10/15 03:28:44;;;;;;;;;;;;;;;5.82;100.00;101777.72;5047712;28;20006;-70
2023/10/15 03:31:09;;;;;;;;;;;;;;;5.73;100.00;101772.75;5045488;28;19929;-72
2023/10/15 03:33:35;;;;;;;;;;;;;;;5.74;100.00;101766.50;5050329;28;20513;-74
2023/10/15 03:36:03;;;;;;;;;;;;;;;5.77;100.00;101775.25;5046072;28;19942;-71
2023/10/15 03:38:34;;;;;;;;;;;;;;;5.78;100.00;101790.31;5049345;28;20008;-71
2023/10/15 03:41:21;;;;;;;;;;;;;;;5.84;100.00;101789.19;5045440;28;19928;-72
2023/10/15 03:43:46;;;;;;;;;;;;;;;5.94;100.00;101797.66;5042810;28;19924;-72
2023/10/15 03:46:21;;;;;;;;;;;;;;;5.92;100.00;101794.19;5050357;28;20229;-71
2023/10/15 03:48:50;;;;;;;;;;;;;;;5.76;100.00;101791.28;5049266;28;19920;-71
2023/10/15 03:51:21;;;;;;;;;;;;;;;6.05;100.00;101816.75;5047232;28;20443;-71
2023/10/15 03:53:52;;;;;;;;;;;;;;;6.17;100.00;101815.34;5049141;28;19943;-72
2023/10/15 03:56:27;;;;;;;;;;;;;;;6.17;100.00;101817.13;5044076;28;20347;-72
2023/10/15 03:58:52;;;;;;;;;;;;;;;6.19;100.00;101809.94;5045908;28;19967;-72
2023/10/15 04:01:17;;;;;;;;;;;;;;;6.25;100.00;101812.34;5046780;28;20413;-72
2023/10/15 04:03:49;;;;;;;;;;;;;;;6.33;100.00;101809.34;5051117;28;20370;-71
2023/10/15 04:06:15;;;;;;;;;;;;;;;6.39;100.00;101809.91;5053054;28;19966;-72
2023/10/15 04:08:59;;;;;;;;;;;;;;;6.35;100.00;101797.69;5053605;28;19928;-72
2023/10/15 04:11:29;;;;;;;;;;;;;;;6.37;100.00;101795.78;5056798;28;19959;-72
2023/10/15 04:13:56;;;;;;;;;;;;;;;6.45;100.00;101801.66;5052184;28;19920;-72
2023/10/15 04:16:22;;;;;;;;;;;;;;;6.44;100.00;101799.91;5055290;28;20316;-73
2023/10/15 04:18:48;;;;;;;;;;;;;;;6.44;100.00;101804.41;5054965;28;20457;-72
2023/10/15 04:21:16;;;;;;;;;;;;;;;6.43;100.00;101800.84;5053919;28;19995;-71
2023/10/15 04:23:44;;;;;;;;;;;;;;;6.37;100.00;101805.59;5054000;28;19927;-72
2023/10/15 04:26:12;;;;;;;;;;;;;;;6.32;100.00;101812.94;5055886;28;19921;-72
2023/10/15 04:28:37;;;;;;;;;;;;;;;6.32;100.00;101805.81;5057317;28;20366;-73
2023/10/15 04:31:10;;;;;;;;;;;;;;;6.32;100.00;101813.81;5057256;28;19924;-72
2023/10/15 04:33:35;;;;;;;;;;;;;;;6.35;100.00;101821.69;5055445;28;19917;-71
2023/10/15 04:36:01;;;;;;;;;;;;;;;6.41;100.00;101820.53;5057093;28;19916;-72
2023/10/15 04:38:28;;;;;;;;;;;;;;;6.41;100.00;101824.06;5056706;28;19927;-72
2023/10/15 04:43:24;;;;;;;;;;;;;;;6.42;100.00;101835.63;5059011;28;19924;-72
2023/10/15 04:45:49;;;;;;;;;;;;;;;6.36;100.00;101836.72;5062092;28;19968;-72
2023/10/15 04:48:15;;;;;;;;;;;;;;;6.36;100.00;101841.22;5062876;28;20441;-72
2023/10/15 04:50:43;;;;;;;;;;;;;;;6.29;100.00;101843.28;5041498;28;20060;-72
2023/10/15 04:53:23;;;;;;;;;;;;;;;6.34;100.00;101840.41;5058420;28;19924;-72
2023/10/15 04:55:49;;;;;;;;;;;;;;;6.37;100.00;101835.78;5059629;28;19932;-71
2023/10/15 04:58:15;;;;;;;;;;;;;;;6.32;100.00;101835.16;5052036;28;19925;-71
2023/10/15 05:00:40;;;;;;;;;;;;;;;6.33;100.00;101836.88;5054879;28;20011;-72
2023/10/15 05:03:05;;;;;;;;;;;;;;;6.39;100.00;101828.59;5060190;28;19924;-72
2023/10/15 05:05:31;;;;;;;;;;;;;;;6.35;100.00;101812.81;5058897;28;20282;-71
2023/10/15 05:07:59;;;;;;;;;;;;;;;6.38;100.00;101805.53;5059573;28;20375;-71
2023/10/15 05:10:27;;;;;;;;;;;;;;;6.42;100.00;101806.25;5054442;28;20015;-71
2023/10/15 05:12:52;;;;;;;;;;;;;;;6.36;100.00;101802.06;5058614;28;19920;-71
2023/10/15 05:15:18;;;;;;;;;;;;;;;6.14;100.00;101807.47;5059599;28;19921;-71
2023/10/15 05:17:46;;;;;;;;;;;;;;;5.89;100.00;101800.53;5058433;28;19920;-70
2023/10/15 05:20:13;;;;;;;;;;;;;;;5.85;100.00;101813.09;5058520;28;19932;-71
2023/10/15 05:22:38;;;;;;;;;;;;;;;5.85;100.00;101802.44;5058893;28;20320;-71
2023/10/15 05:25:04;;;;;;;;;;;;;;;5.87;100.00;101802.38;5058119;28;21063;-71
2023/10/15 05:27:29;;;;;;;;;;;;;;;5.88;100.00;101805.91;5057672;28;20055;-72
2023/10/15 05:29:54;;;;;;;;;;;;;;;5.86;100.00;101804.16;5059957;28;19931;-71
2023/10/15 05:32:19;;;;;;;;;;;;;;;5.85;100.00;101806.91;5058999;28;19975;-71
2023/10/15 05:34:45;;;;;;;;;;;;;;;5.77;100.00;101817.91;5058791;28;20007;-71
2023/10/15 05:37:10;;;;;;;;;;;;;;;5.77;100.00;101814.34;5059858;28;19924;-72
2023/10/15 05:39:36;;;;;;;;;;;;;;;5.73;100.00;101821.63;5058064;28;20007;-71
2023/10/15 05:42:01;;;;;;;;;;;;;;;5.70;100.00;101819.06;5057801;28;20283;-71
2023/10/15 05:44:26;;;;;;;;;;;;;;;5.72;100.00;101822.53;5057846;28;19932;-71
2023/10/15 05:46:51;;;;;;;;;;;;;;;5.70;100.00;101824.41;5057310;28;20303;-71
2023/10/15 05:49:16;;;;;;;;;;;;;;;5.70;100.00;101830.59;5056916;28;20042;-71
2023/10/15 05:51:42;;;;;;;;;;;;;;;5.67;100.00;101817.41;5030522;28;20052;-72
2023/10/15 05:54:09;;;;;;;;;;;;;;;5.63;100.00;101829.13;5059700;28;19917;-71
2023/10/15 05:56:34;;;;;;;;;;;;;;;5.53;100.00;101833.09;5054566;28;19917;-71
2023/10/15 05:58:59;;;;;;;;;;;;;;;5.53;100.00;101846.41;5054363;28;19921;-71
2023/10/15 06:01:24;;;;;;;;;;;;;;;5.58;100.00;101838.22;5056948;28;20409;-71
2023/10/15 06:03:50;;;;;;;;;;;;;;;5.64;100.00;101865.50;5056925;28;20337;-71
2023/10/15 06:06:15;;;;;;;;;;;;;;;5.68;100.00;101863.56;5057641;28;19920;-72
2023/10/15 06:08:40;;;;;;;;;;;;;;;5.76;100.00;101866.78;5058451;28;20356;-71
2023/10/15 06:11:06;;;;;;;;;;;;;;;5.85;100.00;101871.72;5055012;28;19932;-71
2023/10/15 06:13:31;;;;;;;;;;;;;;;5.85;100.00;101882.38;5058113;28;19920;-71
2023/10/15 06:15:57;;;;;;;;;;;;;;;5.94;100.00;101902.50;5058425;28;19913;-71
2023/10/15 06:18:22;;;;;;;;;;;;;;;5.94;100.00;101913.16;5051622;28;20046;-71
2023/10/15 06:20:47;;;;;;;;;;;;;;;6.00;100.00;101912.06;5058619;28;20015;-71
2023/10/15 06:23:13;;;;;;;;;;;;;;;6.02;100.00;101918.19;5050225;28;20363;-71
2023/10/15 06:25:39;;;;;;;;;;;;;;;6.07;100.00;101910.00;5046427;28;20367;-71
2023/10/15 06:28:05;;;;;;;;;;;;;;;6.08;100.00;101904.63;5050100;28;20382;-71
2023/10/15 06:30:30;;;;;;;;;;;;;;;6.07;100.00;101900.22;5056399;28;20182;-73
2023/10/15 06:32:55;;;;;;;;;;;;;;;6.08;100.00;101890.41;5058294;28;19920;-72
2023/10/15 06:35:25;;;;;;;;;;;;;;;6.05;100.00;101898.53;5052826;28;19916;-71
2023/10/15 06:37:55;;;;;;;;;;;;;;;6.07;100.00;101902.00;5057699;28;20480;-71
2023/10/15 06:40:21;;;;;;;;;;;;;;;6.09;100.00;101893.00;5055799;28;20071;-71
2023/10/15 06:42:46;;;;;;;;;;;;;;;6.14;100.00;101899.00;5056675;28;19993;-71
2023/10/15 06:45:15;;;;;;;;;;;;;;;6.20;100.00;101892.56;5057346;28;19927;-71
2023/10/15 06:47:44;;;;;;;;;;;;;;;6.23;100.00;101891.56;5058092;28;19942;-72
2023/10/15 06:50:09;;;;;;;;;;;;;;;6.30;100.00;101893.88;5055404;28;19928;-71
2023/10/15 06:52:38;;;;;;;;;;;;;;;6.33;100.00;101897.34;5040029;28;19951;-71
2023/10/15 06:55:07;;;;;;;;;;;;;;;6.38;100.00;101898.03;5057317;28;19920;-72
2023/10/15 06:57:32;;;;;;;;;;;;;;;6.36;100.00;101900.75;5039716;28;20419;-71
2023/10/15 06:59:58;;;;;;;;;;;;;;;6.32;100.00;101914.28;5033541;28;20409;-72
2023/10/15 07:02:23;;;;;;;;;;;;;;;6.38;100.00;101920.22;5048332;28;19932;-72
2023/10/15 07:04:48;;;;;;;;;;;;;;;6.27;100.00;101891.34;5049677;28;19924;-71
2023/10/15 07:07:14;;;;;;;;;;;;;;;6.48;100.00;101914.50;5050870;28;19921;-72
2023/10/15 07:09:40;;;;;;;;;;;;;;;6.54;100.00;101932.91;5048893;28;20394;-72
2023/10/15 07:12:05;;;;;;;;;;;;;;;6.54;100.00;101931.09;5049801;28;20386;-71
2023/10/15 07:14:30;;;;;;;;;;;;;;;6.61;100.00;101934.41;5046419;28;19921;-71
2023/10/15 07:16:56;;;;;;;;;;;;;;;6.66;100.00;101937.72;5047183;28;19917;-72
2023/10/15 07:19:21;;;;;;;;;;;;;;;6.69;100.00;101958.94;5049945;28;20578;-71
2023/10/15 07:21:56;;;;;;;;;;;;;;;6.64;100.00;101957.41;5091682;27;19969;-71
2023/10/15 07:24:22;;;;;;;;;;;;;;;6.70;100.00;101960.66;5074539;28;19920;-72
2023/10/15 07:26:47;;;;;;;;;;;;;;;6.76;100.00;101951.50;5075812;28;19981;-72
2023/10/15 07:29:12;;;;;;;;;;;;;;;6.74;100.00;101961.41;5107879;27;20074;-72
2023/10/15 07:31:38;;;;;;;;;;;;;;;6.78;100.00;101954.97;5074708;28;19973;-72
2023/10/15 07:34:04;;;;;;;;;;;;;;;6.80;100.00;101955.78;5090658;28;20301;-72
2023/10/15 07:36:30;;;;;;;;;;;;;;;6.94;100.00;101957.84;5074447;28;20255;-71
2023/10/15 07:38:56;;;;;;;;;;;;;;;7.06;100.00;101961.75;5075259;28;19928;-72
2023/10/15 07:41:21;;;;;;;;;;;;;;;7.00;100.00;101962.06;5092584;27;19960;-72
2023/10/15 07:43:47;;;;;;;;;;;;;;;7.08;100.00;101973.25;5107406;27;20417;-72
2023/10/15 07:46:12;;;;;;;;;;;;;;;7.12;100.00;101969.50;5109668;27;20367;-72
2023/10/15 07:48:37;;;;;;;;;;;;;;;7.13;100.00;101973.06;5076221;28;19927;-72
2023/10/15 07:51:03;;;;;;;;;;;;;;;7.20;100.00;101979.84;5075364;28;19986;-71
2023/10/15 07:53:28;;;;;;;;;;;;;;;7.25;100.00;101975.16;5074041;28;19920;-72
2023/10/15 07:55:53;;;;;;;;;;;;;;;7.23;100.00;101979.69;5075483;28;19920;-72
2023/10/15 07:58:21;;;;;;;;;;;;;;;7.32;100.00;101979.28;5077424;28;20408;-72
2023/10/15 08:00:46;;;;;;;;;;;;;;;7.39;100.00;101982.53;5107829;27;19971;-73
2023/10/15 08:03:12;;;;;;;;;;;;;;;7.44;100.00;101971.63;5105434;27;20026;-72
2023/10/15 08:05:39;;;;;;;;;;;;;;;7.55;100.00;101981.84;5094430;28;19920;-72
2023/10/15 08:08:04;;;;;;;;;;;;;;;7.64;100.00;101992.97;5100771;27;20583;-72
2023/10/15 08:10:33;;;;;;;;;;;;;;;7.69;100.00;101999.88;5070612;28;19990;-72
2023/10/15 08:12:59;;;;;;;;;;;;;;;7.70;100.00;102010.53;5102049;27;19967;-72
2023/10/15 08:15:24;;;;;;;;;;;;;;;7.60;100.00;101991.38;5086138;28;20010;-72
2023/10/15 08:17:50;;;;;;;;;;;;;;;7.79;100.00;102006.53;5074481;28;20207;-72
2023/10/15 08:20:15;;;;;;;;;;;;;;;7.77;100.00;101997.72;5079841;28;19924;-72
2023/10/15 08:22:40;;;;;;;;;;;;;;;7.69;100.00;102000.75;5107037;27;19920;-71
2023/10/15 08:25:18;;;;;;;;;;;;;;;7.81;100.00;102008.19;5104090;27;19963;-72
2023/10/15 08:27:44;;;;;;;;;;;;;;;7.95;100.00;102009.34;5071377;28;20374;-72
2023/10/15 08:30:12;;;;;;;;;;;;;;;8.13;100.00;102018.31;5109037;27;19922;-72
2023/10/15 08:32:39;;;;;;;;;;;;;;;8.38;100.00;102019.75;5076947;28;19951;-72
2023/10/15 08:35:05;;;;;;;;;;;;;;;8.50;100.00;102021.00;5056182;28;20178;-72
2023/10/15 08:37:30;;;;;;;;;;;;;;;8.62;100.00;102027.53;5085324;27;20090;-73
2023/10/15 08:39:55;;;;;;;;;;;;;;;8.70;100.00;102034.22;5069831;28;20566;-72
2023/10/15 08:42:23;;;;;;;;;;;;;;;8.68;100.00;102037.94;5082164;28;19920;-72
2023/10/15 08:44:49;;;;;;;;;;;;;;;8.50;100.00;102050.44;5089379;27;19998;-71
2023/10/15 08:47:15;;;;;;;;;;;;;;;8.45;100.00;102050.66;5072697;28;19931;-71
2023/10/15 08:49:44;;;;;;;;;;;;;;;8.30;100.00;102060.28;5086647;28;19921;-71
2023/10/15 08:52:09;;;;;;;;;;;;;;;8.17;100.00;102062.69;5071588;28;19912;-71
2023/10/15 08:54:38;;;;;;;;;;;;;;;8.15;100.00;102061.00;5068287;28;20052;-71
2023/10/15 08:57:06;;;;;;;;;;;;;;;8.25;100.00;102062.31;5086413;28;19961;-71
2023/10/15 08:59:32;;;;;;;;;;;;;;;8.26;100.00;102056.88;5041401;28;20282;-71
2023/10/15 09:01:57;;;;;;;;;;;;;;;8.31;100.00;102048.66;5087830;28;20351;-71
2023/10/15 09:04:22;;;;;;;;;;;;;;;8.50;100.00;102055.78;5074281;28;19917;-71
2023/10/15 09:06:48;;;;;;;;;;;;;;;8.65;100.00;102055.00;5091533;27;19925;-71
2023/10/15 09:09:13;;;;;;;;;;;;;;;8.74;100.00;102053.69;5055975;28;19920;-71
2023/10/15 09:11:42;;;;;;;;;;;;;;;8.85;100.00;102061.19;5053592;28;20291;-72
2023/10/15 09:14:12;;;;;;;;;;;;;;;9.09;100.00;102064.41;5052523;28;19924;-71
2023/10/15 09:16:38;;;;;;;;;;;;;;;9.23;100.00;102061.00;5049082;28;19966;-71
2023/10/15 09:19:06;;;;;;;;;;;;;;;9.34;100.00;102060.44;5050179;28;20459;-71
2023/10/15 09:21:31;;;;;;;;;;;;;;;9.39;100.00;102069.09;5049118;28;19924;-71
2023/10/15 09:24:01;;;;;;;;;;;;;;;9.33;100.00;102068.56;5053258;28;19943;-71
2023/10/15 09:26:29;;;;;;;;;;;;;;;9.37;100.00;102060.25;5050567;28;19920;-72
2023/10/15 09:28:54;;;;;;;;;;;;;;;9.83;100.00;102059.59;5065192;28;19924;-72
2023/10/15 09:31:20;;;;;;;;;;;;;;;10.22;100.00;102070.88;5051468;28;20394;-71
2023/10/15 09:33:51;;;;;;;;;;;;;;;10.29;100.00;102084.78;5052436;28;19970;-71
2023/10/15 09:36:16;;;;;;;;;;;;;;;10.33;100.00;102080.97;5066077;28;20038;-72
2023/10/15 09:38:41;;;;;;;;;;;;;;;10.27;100.00;102087.56;5069315;28;20014;-73
2023/10/15 09:41:06;;;;;;;;;;;;;;;10.19;100.00;102089.81;5080982;28;19960;-72
2023/10/15 09:43:35;;;;;;;;;;;;;;;10.24;100.00;102095.81;5050190;28;20020;-71
2023/10/15 09:46:01;;;;;;;;;;;;;;;10.27;100.00;102102.81;5065646;28;20379;-71
2023/10/15 09:48:26;;;;;;;;;;;;;;;10.30;100.00;102108.00;5051303;28;19920;-71
2023/10/15 09:50:53;;;;;;;;;;;;;;;10.17;100.00;102108.72;5054957;28;19985;-72
2023/10/15 09:53:22;;;;;;;;;;;;;;;10.14;100.00;102111.56;5051843;28;19928;-72
2023/10/15 09:55:47;;;;;;;;;;;;;;;10.24;100.00;102119.97;5054286;28;20343;-71
2023/10/15 09:58:15;;;;;;;;;;;;;;;10.39;100.00;102115.56;5082250;28;20459;-72
2023/10/15 10:00:46;;;;;;;;;;;;;;;10.58;100.00;102119.88;5053770;28;20026;-72
2023/10/15 10:03:22;;;;;;;;;;;;;;;11.11;100.00;102117.72;5063528;28;20355;-72
2023/10/15 10:05:51;;;;;;;;;;;;;;;11.25;100.00;102130.31;5087010;28;19920;-72
2023/10/15 10:08:26;;;;;;;;;;;;;;;11.57;100.00;102124.78;5087129;28;19942;-71
2023/10/15 10:10:59;;;;;;;;;;;;;;;11.72;100.00;102122.13;5055536;28;19927;-71
2023/10/15 10:13:25;;;;;;;;;;;;;;;11.74;100.00;102131.81;5053574;28;20090;-71
2023/10/15 10:15:57;;;;;;;;;;;;;;;11.60;100.00;102127.28;5053571;28;20541;-72
2023/10/15 10:18:23;;;;;;;;;;;;;;;11.11;100.00;102139.22;5054911;28;20356;-71
2023/10/15 10:20:48;;;;;;;;;;;;;;;10.78;100.00;102142.91;5087784;28;19932;-72
2023/10/15 10:23:14;;;;;;;;;;;;;;;10.48;100.00;102141.88;5054443;28;19967;-71
2023/10/15 10:25:40;;;;;;;;;;;;;;;10.35;100.00;102146.19;5053404;28;20038;-71
2023/10/15 10:28:13;;;;;;;;;;;;;;;10.20;100.00;102145.22;5053877;28;19916;-72
2023/10/15 10:30:39;;;;;;;;;;;;;;;10.29;100.00;102144.72;5054034;28;19927;-72
2023/10/15 10:33:05;;;;;;;;;;;;;;;10.64;100.00;102149.94;5086713;28;20280;-72
2023/10/15 10:35:43;;;;;;;;;;;;;;;11.31;100.00;102146.06;5054037;28;20465;-71
2023/10/15 10:38:11;;;;;;;;;;;;;;;12.21;100.00;102137.88;5069749;28;20323;-71
2023/10/15 10:40:47;;;;;;;;;;;;;;;13.07;100.00;102143.09;5053527;28;19963;-71
2023/10/15 10:43:16;;;;;;;;;;;;;;;13.36;100.00;102149.22;5084113;28;20017;-71
2023/10/15 10:45:58;;;;;;;;;;;;;;;13.75;100.00;102152.81;5085290;28;19974;-72
2023/10/15 10:48:24;;;;;;;;;;;;;;;13.34;100.00;102156.53;5069939;28;20283;-72
2023/10/15 10:51:07;;;;;;;;;;;;;;;13.35;100.00;102151.03;5054854;28;19924;-71
2023/10/15 10:53:33;;;;;;;;;;;;;;;13.50;100.00;102154.53;5054992;28;19992;-71
2023/10/15 10:56:05;;;;;;;;;;;;;;;13.53;100.00;102156.13;5051197;28;20355;-71
2023/10/15 10:58:30;;;;;;;;;;;;;;;14.06;100.00;102152.44;5084045;28;19920;-71
2023/10/15 11:00:58;;;;;;;;;;;;;;;14.91;100.00;102137.28;5088348;28;20340;-71
2023/10/15 11:03:23;;;;;;;;;;;;;;;15.35;98.79;102140.28;5055368;28;19923;-72
2023/10/15 11:05:49;;;;;;;;;;;;;;;15.69;91.84;102143.91;5055030;28;19924;-71
2023/10/15 11:08:18;;;;;;;;;;;;;;;16.14;88.48;102134.09;5054499;28;19955;-71
2023/10/15 11:10:45;;;;;;;;;;;;;;;16.60;81.09;102138.44;5084384;28;20601;-72
2023/10/15 11:13:10;;;;;;;;;;;;;;;16.77;77.87;102136.16;5084732;28;20346;-71
2023/10/15 11:15:36;;;;;;;;;;;;;;;17.72;74.54;102142.59;5054111;28;19928;-71
2023/10/15 11:18:04;;;;;;;;;;;;;;;17.80;75.14;102136.50;5052788;28;19927;-71
2023/10/15 11:20:30;;;;;;;;;;;;;;;17.51;75.59;102150.75;5053887;28;19940;-70
2023/10/15 11:22:59;;;;;;;;;;;;;;;16.48;81.50;102142.16;5069225;28;20529;-70
2023/10/15 11:25:24;;;;;;;;;;;;;;;18.82;71.30;102142.78;5084834;28;20022;-71
2023/10/15 11:27:50;;;;;;;;;;;;;;;19.40;67.84;102143.78;5085110;28;20414;-71
2023/10/15 11:30:16;;;;;;;;;;;;;;;19.31;59.69;102149.13;5056334;28;19916;-72
2023/10/15 11:32:41;;;;;;;;;;;;;;;18.61;60.91;102149.22;5086678;28;19924;-72
2023/10/15 11:35:07;;;;;;;;;;;;;;;18.25;61.68;102152.41;5084342;28;21896;-72
2023/10/15 11:37:32;;;;;;;;;;;;;;;19.08;61.77;102140.41;5034198;28;19956;-71
2023/10/15 11:39:57;;;;;;;;;;;;;;;17.54;62.26;102154.06;5048232;28;20420;-72
2023/10/15 11:42:24;;;;;;;;;;;;;;;16.78;62.27;102154.16;5050049;28;19967;-71
2023/10/15 11:44:55;;;;;;;;;;;;;;;15.59;75.09;102151.88;5046267;28;19916;-71
2023/10/15 11:47:24;;;;;;;;;;;;;;;16.39;75.46;102143.78;5049222;28;19975;-71
2023/10/15 11:49:50;;;;;;;;;;;;;;;18.55;67.86;102144.31;5076465;28;19924;-72
2023/10/15 11:52:18;;;;;;;;;;;;;;;19.42;63.15;102150.81;5045697;28;19916;-72
2023/10/15 11:54:48;;;;;;;;;;;;;;;18.24;65.09;102147.97;5083762;28;19924;-71
2023/10/15 11:57:16;;;;;;;;;;;;;;;17.43;68.02;102146.00;5084200;28;19920;-73
2023/10/15 11:59:41;;;;;;;;;;;;;;;16.44;68.11;102140.69;5035534;28;20381;-72
2023/10/15 12:02:10;;;;;;;;;;;;;;;14.17;76.22;102144.44;5050416;28;20026;-70
2023/10/15 12:04:36;;;;;;;;;;;;;;;13.77;85.70;102148.16;5051900;28;20806;-72
2023/10/15 12:07:02;;;;;;;;;;;;;;;13.78;96.77;102147.19;5037557;28;19924;-74
2023/10/15 12:09:27;;;;;;;;;;;;;;;12.81;100.00;102149.28;5055316;28;19920;-71
2023/10/15 12:11:52;;;;;;;;;;;;;;;12.27;100.00;102150.09;5073239;28;20598;-71
2023/10/15 12:14:17;;;;;;;;;;;;;;;11.62;100.00;102173.78;5090032;28;19932;-73
2023/10/15 12:16:44;;;;;;;;;;;;;;;11.26;100.00;102183.09;5055627;28;19925;-72
2023/10/15 12:19:09;;;;;;;;;;;;;;;11.06;100.00;102181.63;5087936;27;19924;-72
2023/10/15 12:21:35;;;;;;;;;;;;;;;10.79;100.00;102211.81;5086764;28;19968;-72
2023/10/15 12:24:01;;;;;;;;;;;;;;;10.28;100.00;102212.78;5071177;28;20110;-74
2023/10/15 12:26:26;;;;;;;;;;;;;;;9.75;100.00;102203.97;5088867;28;20071;-72
2023/10/15 12:28:51;;;;;;;;;;;;;;;9.56;100.00;102199.56;5040280;28;19928;-73
2023/10/15 12:31:17;;;;;;;;;;;;;;;9.45;100.00;102193.88;5085113;28;19923;-72
2023/10/15 12:33:42;;;;;;;;;;;;;;;10.23;100.00;102185.31;5040829;28;20994;-72
2023/10/15 12:36:09;;;;;;;;;;;;;;;11.86;100.00;102173.25;5087375;28;19924;-72
2023/10/15 12:38:34;;;;;;;;;;;;;;;14.26;100.00;102175.31;5087315;28;19920;-72
2023/10/15 12:41:00;;;;;;;;;;;;;;;16.18;100.00;102174.38;5087679;27;20290;-71
2023/10/15 12:43:26;;;;;;;;;;;;;;;17.62;83.66;102169.69;5055620;28;19920;-71
2023/10/15 12:45:52;;;;;;;;;;;;;;;18.58;69.54;102150.38;5088262;28;20657;-72